Time;durP1;ratioP1;P1;durP2;ratioP2;P2;SDS_P1;SDS_P2;PMS_P1;PMS_P2;Temp;Humidity;BMP_temperature;BMP_pressure;BME280_temperature;BME280_humidity;BME280_pressure;Samples;Min_cycle;Max_cycle;Signal;HPM_P1;HPM_P2
2023/12/03 00:00:16;;;;;;;8.05;5.25;;;;;;;23.89;38.30;100292.41;2097648;28;20159;-65
2023/12/03 00:01:18;;;;;;;10.38;5.50;;;;;;;23.90;38.20;100291.25;2106534;28;20048;-65
2023/12/03 00:02:21;;;;;;;10.43;5.38;;;;;;;23.91;38.14;100284.59;2089408;28;20045;-63
2023/12/03 00:03:23;;;;;;;9.48;5.63;;;;;;;23.91;38.18;100287.34;2090411;28;20068;-65
2023/12/03 00:04:28;;;;;;;9.48;5.35;;;;;;;23.92;38.50;100286.16;2106694;28;20024;-64
2023/12/03 00:05:30;;;;;;;13.10;6.15;;;;;;;23.91;38.17;100279.88;2106205;28;20830;-64
2023/12/03 00:06:32;;;;;;;11.32;5.60;;;;;;;23.92;38.26;100275.97;2098537;28;20155;-65
2023/12/03 00:07:33;;;;;;;7.60;4.93;;;;;;;23.91;38.15;100274.38;2102801;28;20810;-63
2023/12/03 00:08:35;;;;;;;9.73;5.30;;;;;;;23.92;38.14;100278.72;2102571;28;20099;-65
2023/12/03 00:09:37;;;;;;;9.27;5.10;;;;;;;23.93;38.32;100287.72;2098843;28;20032;-65
2023/12/03 00:10:41;;;;;;;8.85;5.53;;;;;;;23.93;38.32;100276.75;2098239;28;20029;-64
2023/12/03 00:11:42;;;;;;;9.13;5.13;;;;;;;23.93;38.26;100284.97;2082706;28;20034;-64
2023/12/03 00:12:45;;;;;;;8.80;4.93;;;;;;;23.93;38.28;100276.75;2086271;28;20111;-64
2023/12/03 00:13:46;;;;;;;8.90;5.20;;;;;;;23.93;38.28;100282.25;2098583;28;20201;-63
2023/12/03 00:14:49;;;;;;;9.45;5.80;;;;;;;23.93;38.27;100279.50;2106524;28;20599;-64
2023/12/03 00:15:51;;;;;;;8.05;4.85;;;;;;;23.94;38.27;100272.84;2106934;28;20025;-65
2023/12/03 00:16:55;;;;;;;8.93;5.25;;;;;;;23.94;38.29;100281.09;2106750;28;20168;-64
2023/12/03 00:18:00;;;;;;;10.80;5.45;;;;;;;23.94;38.37;100281.09;2107358;28;20159;-64
2023/12/03 00:19:02;;;;;;;8.15;4.78;;;;;;;23.95;38.31;100274.44;2107314;28;20030;-64
2023/12/03 00:20:07;;;;;;;10.35;5.70;;;;;;;23.95;38.29;100279.91;2095710;28;20088;-65
2023/12/03 00:21:10;;;;;;;8.90;5.40;;;;;;;23.91;38.31;100273.59;2090533;28;20838;-64
2023/12/03 00:22:12;;;;;;;9.15;4.90;;;;;;;23.95;38.29;100279.91;2090190;28;20025;-64
2023/12/03 00:23:15;;;;;;;8.75;4.82;;;;;;;23.95;38.27;100280.69;2098463;28;20972;-64
2023/12/03 00:24:20;;;;;;;9.38;5.25;;;;;;;23.96;38.47;100270.50;2106549;28;20039;-65
2023/12/03 00:25:21;;;;;;;7.85;4.70;;;;;;;23.96;38.47;100282.31;2098839;28;20071;-64
2023/12/03 00:26:23;;;;;;;7.47;4.47;;;;;;;23.95;38.27;100279.91;2090086;28;20163;-64
2023/12/03 00:27:24;;;;;;;8.95;4.55;;;;;;;23.96;38.34;100281.47;2090056;28;20045;-65
2023/12/03 00:28:26;;;;;;;8.98;5.20;;;;;;;23.96;38.38;100279.56;2081951;28;20041;-64
2023/12/03 00:29:28;;;;;;;7.65;4.53;;;;;;;23.97;38.37;100285.84;2081956;28;20112;-64
2023/12/03 00:30:30;;;;;;;8.52;4.68;;;;;;;23.97;38.39;100278.38;2098417;28;20040;-64
2023/12/03 00:31:33;;;;;;;9.82;5.07;;;;;;;23.97;38.37;100280.34;2089938;28;20943;-64
2023/12/03 00:32:34;;;;;;;8.95;4.60;;;;;;;23.98;38.37;100281.91;2074137;28;20124;-64
2023/12/03 00:33:38;;;;;;;6.85;4.30;;;;;;;23.98;38.39;100277.19;2081567;28;20030;-64
2023/12/03 00:34:40;;;;;;;9.00;4.75;;;;;;;23.98;38.42;100279.16;2090768;28;20888;-64
2023/12/03 00:35:42;;;;;;;7.72;4.65;;;;;;;23.98;38.30;100279.16;2098283;28;20040;-64
2023/12/03 00:36:43;;;;;;;7.50;4.68;;;;;;;23.97;38.35;100278.38;2087345;28;20072;-64
2023/12/03 00:37:45;;;;;;;7.93;4.85;;;;;;;23.99;38.39;100283.47;2089717;28;20041;-64
2023/12/03 00:38:48;;;;;;;8.23;4.72;;;;;;;24.00;38.40;100285.09;2096283;28;20037;-64
2023/12/03 00:39:52;;;;;;;9.07;5.07;;;;;;;23.97;38.35;100288.59;2097849;28;20036;-64
2023/12/03 00:40:53;;;;;;;7.55;4.53;;;;;;;24.00;38.41;100287.81;2102706;28;20107;-64
2023/12/03 00:41:57;;;;;;;9.00;4.78;;;;;;;24.00;38.32;100288.63;2101415;28;20036;-64
2023/12/03 00:42:59;;;;;;;7.68;4.50;;;;;;;24.00;38.38;100293.31;2097868;28;20071;-64
2023/12/03 00:44:01;;;;;;;7.70;4.45;;;;;;;24.00;38.33;100288.63;2098294;28;20947;-64
2023/12/03 00:45:03;;;;;;;9.18;5.20;;;;;;;23.99;38.37;100288.97;2098493;28;20032;-64
2023/12/03 00:46:06;;;;;;;7.85;4.72;;;;;;;24.00;38.39;100285.09;2104271;28;20078;-64
2023/12/03 00:47:08;;;;;;;7.88;4.60;;;;;;;24.00;38.46;100285.09;2097804;28;20800;-64
2023/12/03 00:48:13;;;;;;;8.55;4.53;;;;;;;24.00;38.29;100291.34;2090714;28;20100;-62
2023/12/03 00:49:16;;;;;;;8.10;4.50;;;;;;;24.00;38.38;100294.09;2089777;28;20329;-64
2023/12/03 00:50:18;;;;;;;6.40;4.15;;;;;;;24.00;38.36;100287.81;2090392;28;21041;-63
2023/12/03 00:51:20;;;;;;;9.43;4.40;;;;;;;24.01;38.43;100292.16;2098261;28;20045;-65
2023/12/03 00:52:22;;;;;;;7.88;4.40;;;;;;;24.01;38.47;100292.16;2081781;28;20041;-64
2023/12/03 00:53:24;;;;;;;8.80;4.20;;;;;;;24.01;38.37;100294.88;2087237;28;20119;-65
2023/12/03 00:54:29;;;;;;;7.93;4.55;;;;;;;24.01;38.51;100292.16;2097870;28;20033;-65
2023/12/03 00:55:32;;;;;;;9.32;5.03;;;;;;;24.01;38.43;100289.41;2104956;28;20037;-64
2023/12/03 00:56:34;;;;;;;7.88;4.30;;;;;;;24.02;38.32;100290.97;2106640;28;20032;-64
2023/12/03 00:57:36;;;;;;;7.32;4.60;;;;;;;24.01;38.40;100292.94;2106641;28;21311;-63
2023/12/03 00:58:37;;;;;;;7.75;4.72;;;;;;;24.02;38.40;100296.47;2098064;28;20958;-68
2023/12/03 00:59:39;;;;;;;7.53;4.53;;;;;;;24.01;38.32;100289.41;2098245;28;20064;-65
2023/12/03 01:00:41;;;;;;;8.77;4.97;;;;;;;24.00;37.76;100298.81;2106225;28;20926;-65
2023/12/03 01:01:43;;;;;;;9.55;5.30;;;;;;;23.99;37.32;100298.03;2106857;28;20177;-65
2023/12/03 01:02:44;;;;;;;8.63;5.35;;;;;;;23.94;36.86;100294.81;2089948;28;20167;-65
2023/12/03 01:03:46;;;;;;;9.32;5.50;;;;;;;23.92;36.60;100303.41;2081738;28;20030;-65
2023/12/03 01:04:48;;;;;;;10.05;5.15;;;;;;;23.87;36.38;100301.03;2081891;28;20034;-65
2023/12/03 01:05:49;;;;;;;8.82;4.95;;;;;;;23.79;36.20;100294.66;2090100;28;20046;-64
2023/12/03 01:06:53;;;;;;;8.23;4.97;;;;;;;23.74;36.08;100305.97;2115134;28;20036;-65
2023/12/03 01:07:54;;;;;;;8.35;4.43;;;;;;;23.69;35.92;100306.28;2114852;28;20050;-64
2023/12/03 01:08:59;;;;;;;11.10;5.75;;;;;;;23.63;35.80;100313.25;2106427;28;20043;-64
2023/12/03 01:10:00;;;;;;;8.23;4.97;;;;;;;23.55;35.57;100304.16;2098517;28;20028;-64
2023/12/03 01:11:05;;;;;;;8.77;4.75;;;;;;;23.49;35.64;100311.13;2098021;28;20917;-64
2023/12/03 01:12:09;;;;;;;10.27;4.95;;;;;;;23.41;35.58;100305.91;2106642;28;20958;-65
2023/12/03 01:13:11;;;;;;;9.23;4.55;;;;;;;23.34;35.55;100304.66;2106629;28;20941;-65
2023/12/03 01:14:12;;;;;;;7.72;4.45;;;;;;;23.28;35.51;100311.59;2107473;28;20855;-64
2023/12/03 01:15:14;;;;;;;7.63;5.00;;;;;;;23.22;35.39;100302.13;2098014;28;20851;-65
2023/12/03 01:16:17;;;;;;;9.00;4.88;;;;;;;23.15;35.54;100304.78;2090253;28;20240;-65
2023/12/03 01:17:21;;;;;;;7.75;4.60;;;;;;;23.09;35.53;100301.53;2081689;28;20072;-65
2023/12/03 01:18:23;;;;;;;8.48;4.90;;;;;;;23.04;35.49;100303.81;2082647;28;20034;-65
2023/12/03 01:19:25;;;;;;;7.32;4.38;;;;;;;22.98;35.49;100305.28;2089954;28;20974;-65
2023/12/03 01:20:26;;;;;;;6.60;4.28;;;;;;;22.94;35.57;100312.66;2106497;28;20032;-65
2023/12/03 01:21:28;;;;;;;6.68;4.18;;;;;;;22.87;35.39;100310.59;2106229;28;20882;-64
2023/12/03 01:22:30;;;;;;;7.70;4.60;;;;;;;22.83;35.38;100316.00;2098390;28;20039;-65
2023/12/03 01:23:33;;;;;;;7.95;4.43;;;;;;;22.78;35.34;100318.25;2098089;28;20095;-64
2023/12/03 01:24:34;;;;;;;8.10;4.47;;;;;;;22.73;35.43;100316.63;2090096;28;20079;-64
2023/12/03 01:25:36;;;;;;;6.82;4.10;;;;;;;22.68;35.31;100314.97;2081627;28;20036;-64
2023/12/03 01:26:37;;;;;;;7.40;4.35;;;;;;;22.63;35.39;100315.28;2098556;28;20108;-63
2023/12/03 01:27:39;;;;;;;8.75;4.40;;;;;;;22.59;35.38;100314.44;2106179;28;20209;-64
2023/12/03 01:28:41;;;;;;;6.45;4.22;;;;;;;22.55;35.52;100315.53;2090064;28;20040;-64
2023/12/03 01:29:43;;;;;;;6.88;4.00;;;;;;;22.51;35.55;100320.97;2089672;28;21002;-64
2023/12/03 01:30:47;;;;;;;7.05;4.38;;;;;;;22.47;35.61;100316.56;2090264;28;20036;-64
2023/12/03 01:31:48;;;;;;;7.07;4.57;;;;;;;22.42;35.66;100315.72;2098500;28;20033;-64
2023/12/03 01:32:52;;;;;;;7.20;4.15;;;;;;;22.39;35.56;100319.19;2098405;28;20025;-64
2023/12/03 01:33:54;;;;;;;7.55;4.20;;;;;;;22.36;35.61;100325.38;2098480;28;20197;-64
2023/12/03 01:34:56;;;;;;;8.52;4.28;;;;;;;22.31;35.35;100322.94;2098416;28;20060;-65
2023/12/03 01:35:59;;;;;;;6.75;4.20;;;;;;;22.27;35.40;100316.63;2097919;28;20037;-65
2023/12/03 01:37:01;;;;;;;6.50;4.13;;;;;;;22.27;35.44;100326.78;2098416;28;20037;-63
2023/12/03 01:38:02;;;;;;;7.80;3.72;;;;;;;22.20;35.60;100316.50;2089478;28;20089;-63
2023/12/03 01:39:05;;;;;;;7.05;3.83;;;;;;;22.20;35.50;100321.97;2089972;28;20026;-64
2023/12/03 01:40:08;;;;;;;7.43;3.90;;;;;;;22.15;35.45;100327.69;2089821;28;20036;-63
2023/12/03 01:41:09;;;;;;;8.57;4.03;;;;;;;22.13;35.58;100330.00;2073789;28;20133;-64
2023/12/03 01:42:13;;;;;;;6.03;3.83;;;;;;;22.07;35.64;100317.75;2073232;28;20901;-64
2023/12/03 01:43:15;;;;;;;7.15;3.65;;;;;;;22.08;35.55;100322.09;2082899;28;20037;-64
2023/12/03 01:44:17;;;;;;;7.50;3.83;;;;;;;22.06;35.68;100324.38;2098188;28;20836;-64
2023/12/03 01:45:19;;;;;;;6.53;4.00;;;;;;;22.03;35.65;100325.91;2089929;28;20864;-64
2023/12/03 01:46:22;;;;;;;6.57;3.95;;;;;;;22.01;35.47;100319.22;2097744;28;20167;-64
2023/12/03 01:47:23;;;;;;;6.40;3.83;;;;;;;21.98;35.56;100327.00;2081887;28;20904;-64
2023/12/03 01:48:25;;;;;;;7.75;3.90;;;;;;;21.96;35.53;100323.81;2090040;28;20038;-64
2023/12/03 01:49:27;;;;;;;6.63;4.03;;;;;;;21.94;35.62;100323.41;2098030;28;20036;-64
2023/12/03 01:50:30;;;;;;;6.30;3.80;;;;;;;21.90;35.54;100319.00;2098131;28;20172;-64
2023/12/03 01:51:32;;;;;;;6.22;3.83;;;;;;;21.89;35.51;100331.91;2106177;28;20032;-64
2023/12/03 01:52:36;;;;;;;6.40;3.63;;;;;;;21.85;35.59;100328.31;2089573;28;20029;-64
2023/12/03 01:53:42;;;;;;;7.22;4.18;;;;;;;21.84;35.51;100331.38;2098644;28;20037;-64
2023/12/03 01:54:46;;;;;;;5.80;3.63;;;;;;;21.82;35.63;100329.03;2090101;28;20048;-64
2023/12/03 01:55:49;;;;;;;5.68;3.25;;;;;;;21.79;35.55;100321.53;2082657;28;20056;-64
2023/12/03 01:56:51;;;;;;;9.35;4.00;;;;;;;21.77;35.58;100332.03;2097859;28;20047;-64
2023/12/03 01:57:56;;;;;;;7.32;4.07;;;;;;;21.75;35.63;100326.13;2107099;28;20111;-64
2023/12/03 01:58:57;;;;;;;6.18;3.92;;;;;;;21.71;35.81;100326.06;2106178;28;20067;-64
2023/12/03 01:59:59;;;;;;;6.70;3.80;;;;;;;21.70;35.70;100327.22;2097743;28;20379;-64
2023/12/03 02:01:00;;;;;;;6.38;3.70;;;;;;;21.68;35.53;100323.25;2089653;28;20048;-64
2023/12/03 02:02:02;;;;;;;4.97;3.25;;;;;;;21.66;35.70;100326.34;2089673;28;20033;-64
2023/12/03 02:03:03;;;;;;;6.05;3.80;;;;;;;21.65;35.61;100332.16;2073413;28;20880;-64
2023/12/03 02:04:08;;;;;;;7.32;3.90;;;;;;;21.63;35.59;100337.22;2090509;28;20083;-64
2023/12/03 02:05:12;;;;;;;5.30;3.58;;;;;;;21.61;35.68;100339.53;2097806;28;20033;-63
2023/12/03 02:06:16;;;;;;;8.00;3.60;;;;;;;21.60;35.60;100332.47;2098362;28;20151;-65
2023/12/03 02:07:19;;;;;;;6.38;3.75;;;;;;;21.58;35.55;100337.50;2098093;28;20029;-65
2023/12/03 02:08:20;;;;;;;6.60;3.78;;;;;;;21.57;35.54;100338.66;2106763;28;20024;-65
2023/12/03 02:09:23;;;;;;;5.35;3.40;;;;;;;21.54;35.76;100336.63;2106265;28;20037;-65
2023/12/03 02:10:24;;;;;;;6.90;3.55;;;;;;;21.52;35.60;100337.75;2106225;28;20891;-65
2023/12/03 02:11:30;;;;;;;7.80;4.05;;;;;;;21.50;35.57;100334.63;2105971;28;20956;-64
2023/12/03 02:12:37;;;;;;;6.00;3.58;;;;;;;21.50;35.64;100333.81;2098839;28;20816;-64
2023/12/03 02:13:39;;;;;;;6.40;3.50;;;;;;;21.48;35.63;100330.66;2090573;28;20120;-64
2023/12/03 02:14:42;;;;;;;6.43;3.50;;;;;;;21.46;35.68;100333.72;2098322;28;20095;-64
2023/12/03 02:15:43;;;;;;;5.15;3.17;;;;;;;21.45;35.44;100337.63;2089422;28;20037;-64
2023/12/03 02:16:47;;;;;;;5.22;3.10;;;;;;;21.43;35.57;100334.44;2082726;28;20048;-64
2023/12/03 02:17:50;;;;;;;5.65;3.22;;;;;;;21.42;35.61;100348.50;2097924;28;20129;-64
2023/12/03 02:18:52;;;;;;;7.30;3.67;;;;;;;21.41;35.64;100336.75;2098267;28;20040;-64
2023/12/03 02:19:55;;;;;;;5.50;3.28;;;;;;;21.40;35.48;100340.63;2106149;28;20024;-64
2023/12/03 02:20:56;;;;;;;4.10;2.88;;;;;;;21.39;35.69;100343.72;2097993;28;20277;-65
2023/12/03 02:21:58;;;;;;;5.13;2.83;;;;;;;21.38;35.53;100344.88;2081122;28;20033;-65
2023/12/03 02:23:01;;;;;;;5.90;2.90;;;;;;;21.36;35.65;100345.22;2089804;28;20029;-65
2023/12/03 02:24:05;;;;;;;5.32;3.30;;;;;;;21.35;35.72;100332.72;2106156;28;20036;-64
2023/12/03 02:25:08;;;;;;;4.65;2.80;;;;;;;21.35;35.64;100342.84;2097941;28;20033;-65
2023/12/03 02:26:12;;;;;;;4.30;2.90;;;;;;;21.29;35.62;100332.16;2098305;28;20028;-64
2023/12/03 02:27:14;;;;;;;6.15;2.95;;;;;;;21.33;35.66;100345.91;2097804;28;20033;-64
2023/12/03 02:28:17;;;;;;;5.70;2.90;;;;;;;21.31;35.62;100345.47;2089588;28;20095;-64
2023/12/03 02:29:18;;;;;;;4.78;2.55;;;;;;;21.31;35.73;100345.47;2097603;28;20045;-63
2023/12/03 02:30:20;;;;;;;4.30;2.63;;;;;;;21.30;35.60;100346.63;2097643;28;20189;-64
2023/12/03 02:31:21;;;;;;;4.07;2.85;;;;;;;21.29;35.61;100345.03;2097696;28;20033;-64
2023/12/03 02:32:23;;;;;;;4.22;2.92;;;;;;;21.27;35.77;100344.59;2097932;28;21008;-64
2023/12/03 02:33:24;;;;;;;3.97;2.72;;;;;;;21.27;35.65;100348.13;2098005;28;20155;-63
2023/12/03 02:34:28;;;;;;;5.05;2.80;;;;;;;21.27;35.74;100350.06;2089776;28;21014;-64
2023/12/03 02:35:32;;;;;;;3.97;2.40;;;;;;;21.26;35.80;100343.03;2090329;28;20029;-64
2023/12/03 02:36:33;;;;;;;4.50;2.50;;;;;;;21.26;35.84;100351.22;2089436;28;20112;-63
2023/12/03 02:37:35;;;;;;;5.28;2.30;;;;;;;21.25;35.76;100349.66;2089841;28;20033;-63
2023/12/03 02:38:36;;;;;;;3.80;2.60;;;;;;;21.24;35.69;100354.31;2105995;28;20159;-64
2023/12/03 02:39:38;;;;;;;3.83;2.63;;;;;;;21.25;35.61;100360.59;2106304;28;20029;-63
2023/12/03 02:40:40;;;;;;;5.07;2.63;;;;;;;21.24;35.64;100356.25;2106146;28;20029;-63
2023/12/03 02:41:42;;;;;;;4.15;2.35;;;;;;;21.24;35.65;100357.03;2089333;28;20034;-63
2023/12/03 02:42:44;;;;;;;4.03;2.28;;;;;;;21.22;35.62;100359.34;2089372;28;20128;-63
2023/12/03 02:43:46;;;;;;;3.95;2.50;;;;;;;21.21;35.57;100357.75;2106450;28;20036;-63
2023/12/03 02:44:51;;;;;;;4.00;2.63;;;;;;;21.22;35.56;100362.09;2097732;28;21022;-64
2023/12/03 02:45:55;;;;;;;4.78;2.15;;;;;;;21.21;35.59;100363.22;2090389;28;20108;-64
2023/12/03 02:46:57;;;;;;;3.35;2.20;;;;;;;21.21;35.71;100370.63;2097900;28;20029;-63
2023/12/03 02:47:59;;;;;;;4.03;2.33;;;;;;;21.20;35.62;100363.59;2106168;28;20112;-63
2023/12/03 02:49:01;;;;;;;6.47;2.40;;;;;;;21.18;35.65;100363.91;2081229;28;20044;-63
2023/12/03 02:50:03;;;;;;;2.97;2.08;;;;;;;21.20;35.67;100369.03;2089923;28;20021;-63
2023/12/03 02:51:09;;;;;;;3.97;2.28;;;;;;;21.18;35.59;100360.41;2105961;28;20036;-63
2023/12/03 02:52:10;;;;;;;3.75;2.35;;;;;;;21.17;35.59;100365.06;2089844;28;20040;-63
2023/12/03 02:53:14;;;;;;;4.00;2.20;;;;;;;21.16;35.57;100368.19;2089995;28;20037;-63
2023/12/03 02:54:16;;;;;;;3.20;2.25;;;;;;;21.16;35.60;100374.44;2098178;28;20800;-63
2023/12/03 02:55:17;;;;;;;2.90;1.90;;;;;;;21.17;35.60;100372.50;2089134;28;20029;-63
2023/12/03 02:56:19;;;;;;;3.25;2.33;;;;;;;21.17;35.57;100372.50;2097854;28;20048;-63
2023/12/03 02:57:20;;;;;;;2.63;2.10;;;;;;;21.14;35.57;100371.25;2105831;28;20126;-64
2023/12/03 02:58:22;;;;;;;3.67;2.05;;;;;;;21.15;35.45;100369.31;2106000;28;20047;-64
2023/12/03 02:59:26;;;;;;;2.95;2.20;;;;;;;21.14;35.55;100365.78;2089423;28;20087;-64
2023/12/03 03:00:27;;;;;;;3.42;2.00;;;;;;;21.13;35.51;100372.41;2081719;28;20129;-63
2023/12/03 03:01:28;;;;;;;3.85;2.10;;;;;;;21.11;35.60;100365.72;2097620;28;20037;-63
2023/12/03 03:02:32;;;;;;;3.47;2.30;;;;;;;21.13;35.60;100368.88;2097954;28;20171;-63
2023/12/03 03:03:37;;;;;;;4.28;2.30;;;;;;;21.12;35.54;100368.06;2098167;28;20025;-63
2023/12/03 03:04:42;;;;;;;5.97;2.17;;;;;;;21.13;35.59;100368.88;2106045;28;20207;-64
2023/12/03 03:05:44;;;;;;;4.10;2.42;;;;;;;21.06;35.49;100359.38;2105385;28;20040;-63
2023/12/03 03:06:45;;;;;;;3.13;2.05;;;;;;;21.12;35.62;100367.28;2089571;28;20030;-64
2023/12/03 03:07:47;;;;;;;3.47;2.10;;;;;;;21.11;35.54;100366.50;2089294;28;20037;-64
2023/12/03 03:08:51;;;;;;;3.03;2.17;;;;;;;21.11;35.53;100371.16;2097599;28;20125;-63
2023/12/03 03:09:53;;;;;;;6.65;2.10;;;;;;;21.11;35.57;100371.16;2090370;28;20123;-63
2023/12/03 03:10:55;;;;;;;3.50;2.10;;;;;;;21.09;35.56;100368.81;2099213;28;20110;-64
2023/12/03 03:11:59;;;;;;;5.05;2.00;;;;;;;21.09;35.44;100368.81;2090673;28;20029;-63
2023/12/03 03:13:04;;;;;;;3.95;2.10;;;;;;;21.10;35.63;100369.59;2091817;28;20043;-63
2023/12/03 03:14:05;;;;;;;3.22;2.20;;;;;;;21.08;35.64;100369.94;2099086;28;20079;-63
2023/12/03 03:15:08;;;;;;;3.05;2.15;;;;;;;21.07;35.59;100371.09;2082490;28;20037;-63
2023/12/03 03:16:10;;;;;;;3.22;1.90;;;;;;;21.08;35.49;100378.13;2091279;28;21002;-64
2023/12/03 03:17:13;;;;;;;2.78;2.00;;;;;;;21.07;35.45;100373.81;2107510;28;20040;-64
2023/12/03 03:18:16;;;;;;;3.35;2.08;;;;;;;21.06;35.47;100377.72;2099297;28;20037;-64
2023/12/03 03:19:17;;;;;;;3.28;2.08;;;;;;;21.06;35.36;100377.72;2107723;28;20180;-64
2023/12/03 03:20:22;;;;;;;5.53;2.13;;;;;;;21.05;35.58;100382.38;2098653;28;20029;-64
2023/12/03 03:21:25;;;;;;;3.08;1.90;;;;;;;21.05;35.55;100379.63;2091756;28;21512;-64
2023/12/03 03:22:28;;;;;;;2.65;1.77;;;;;;;21.04;35.50;100383.53;2099233;28;20132;-64
2023/12/03 03:23:33;;;;;;;2.67;1.90;;;;;;;21.04;35.58;100380.00;2091111;28;20036;-64
2023/12/03 03:24:38;;;;;;;2.70;1.77;;;;;;;21.03;35.51;100376.47;2100113;28;20036;-64
2023/12/03 03:25:39;;;;;;;2.58;1.60;;;;;;;21.03;35.45;100378.41;2106801;28;20048;-64
2023/12/03 03:26:41;;;;;;;3.05;1.75;;;;;;;21.02;35.34;100380.34;2107294;28;20028;-64
2023/12/03 03:27:43;;;;;;;3.33;1.92;;;;;;;21.00;35.51;100377.19;2099004;28;20144;-64
2023/12/03 03:28:44;;;;;;;2.80;1.98;;;;;;;21.02;35.48;100379.53;2098904;28;21393;-63
2023/12/03 03:29:49;;;;;;;3.00;1.92;;;;;;;21.00;35.46;100382.66;2099030;28;20127;-64
2023/12/03 03:30:52;;;;;;;3.05;1.98;;;;;;;21.00;35.60;100381.84;2107184;28;20024;-64
2023/12/03 03:31:54;;;;;;;3.17;2.00;;;;;;;21.00;35.59;100382.66;2099314;28;20029;-64
2023/12/03 03:32:55;;;;;;;2.63;1.77;;;;;;;21.00;35.55;100385.38;2090502;28;20029;-64
2023/12/03 03:33:56;;;;;;;2.75;2.00;;;;;;;20.99;35.43;100386.50;2082396;28;20048;-64
2023/12/03 03:34:58;;;;;;;2.97;1.73;;;;;;;20.99;35.48;100391.97;2090474;28;20048;-64
2023/12/03 03:36:03;;;;;;;3.17;1.60;;;;;;;20.97;35.47;100380.63;2107387;28;20032;-64
2023/12/03 03:37:05;;;;;;;3.00;1.67;;;;;;;20.97;35.55;100385.28;2107048;28;20037;-65
2023/12/03 03:38:12;;;;;;;2.38;1.70;;;;;;;20.95;35.50;100380.16;2107333;28;20139;-66
2023/12/03 03:39:14;;;;;;;2.83;1.55;;;;;;;20.95;35.41;100387.59;2107065;28;20037;-66
2023/12/03 03:40:16;;;;;;;2.15;1.50;;;;;;;20.94;35.34;100383.28;2090699;28;21027;-66
2023/12/03 03:41:17;;;;;;;2.13;1.40;;;;;;;20.93;35.43;100390.69;2090622;28;20046;-66
2023/12/03 03:42:19;;;;;;;1.95;1.60;;;;;;;20.93;35.50;100393.41;2099064;28;20041;-66
2023/12/03 03:43:21;;;;;;;1.90;1.38;;;;;;;20.92;35.56;100385.56;2107155;28;20043;-65
2023/12/03 03:44:23;;;;;;;2.40;1.50;;;;;;;20.91;35.44;100390.22;2107205;28;20976;-65
2023/12/03 03:45:24;;;;;;;1.90;1.40;;;;;;;20.91;35.48;100390.22;2098679;28;20913;-65
2023/12/03 03:46:26;;;;;;;3.72;1.58;;;;;;;20.91;35.62;100390.22;2099165;28;20108;-65
2023/12/03 03:47:31;;;;;;;1.45;1.25;;;;;;;20.89;35.51;100381.56;2090474;28;20029;-63
2023/12/03 03:48:31;;;;;;;2.58;1.50;;;;;;;20.88;35.71;100385.47;2083221;28;20836;-64
2023/12/03 03:49:36;;;;;;;3.15;1.33;;;;;;;20.88;35.64;100385.47;2099116;28;20033;-64
2023/12/03 03:50:37;;;;;;;2.88;1.77;;;;;;;20.88;35.60;100393.66;2098868;28;20949;-64
2023/12/03 03:51:39;;;;;;;1.88;1.30;;;;;;;20.87;35.58;100394.00;2098917;28;20096;-64
2023/12/03 03:52:43;;;;;;;3.22;1.58;;;;;;;20.88;35.54;100395.59;2107187;28;20146;-64
2023/12/03 03:53:45;;;;;;;1.98;1.30;;;;;;;20.87;35.46;100394.00;2098770;28;20036;-64
2023/12/03 03:54:47;;;;;;;2.30;1.40;;;;;;;20.85;35.68;100397.09;2090654;28;20030;-64
2023/12/03 03:55:49;;;;;;;2.03;1.35;;;;;;;20.85;35.62;100396.31;2082295;28;20034;-65
2023/12/03 03:56:51;;;;;;;2.83;1.55;;;;;;;20.85;35.53;100394.38;2090902;28;20029;-64
2023/12/03 03:57:52;;;;;;;2.33;1.30;;;;;;;20.84;35.59;100401.00;2090416;28;20037;-63
2023/12/03 03:58:54;;;;;;;2.10;1.27;;;;;;;20.84;35.61;100401.00;2090412;28;20114;-64
2023/12/03 03:59:56;;;;;;;1.77;1.55;;;;;;;20.84;35.64;100403.72;2081903;28;20048;-65
2023/12/03 04:01:00;;;;;;;1.83;1.50;;;;;;;20.83;35.52;100402.91;2082868;28;21016;-65
2023/12/03 04:02:03;;;;;;;2.60;1.40;;;;;;;20.83;35.61;100396.66;2099285;28;21065;-65
2023/12/03 04:03:05;;;;;;;2.38;1.30;;;;;;;20.82;35.52;100398.59;2098951;28;20064;-65
2023/12/03 04:04:07;;;;;;;1.95;1.45;;;;;;;20.82;35.56;100400.53;2098776;28;20033;-64
2023/12/03 04:05:09;;;;;;;1.90;1.20;;;;;;;20.81;35.62;100396.22;2090465;28;20172;-64
2023/12/03 04:06:13;;;;;;;1.63;1.27;;;;;;;20.81;35.56;100401.69;2090064;28;20050;-64
2023/12/03 04:07:15;;;;;;;1.98;1.35;;;;;;;20.81;35.62;100407.16;2090770;28;20041;-64
2023/12/03 04:08:20;;;;;;;1.33;1.17;;;;;;;20.81;35.69;100404.41;2098876;28;20169;-64
2023/12/03 04:09:21;;;;;;;2.22;1.52;;;;;;;20.80;35.67;100405.53;2098535;28;20036;-63
2023/12/03 04:10:23;;;;;;;9.02;1.88;;;;;;;20.80;35.65;100402.81;2090429;28;20895;-64
2023/12/03 04:11:27;;;;;;;2.33;1.50;;;;;;;20.78;35.54;100396.94;2107113;28;20025;-64
2023/12/03 04:12:29;;;;;;;2.38;1.70;;;;;;;20.77;35.81;100401.56;2098434;28;21010;-64
2023/12/03 04:13:31;;;;;;;2.30;1.40;;;;;;;20.79;35.67;100404.75;2090477;28;20033;-64
2023/12/03 04:14:37;;;;;;;3.85;1.30;;;;;;;20.79;35.70;100406.69;2098753;28;20180;-64
2023/12/03 04:15:40;;;;;;;2.38;1.30;;;;;;;20.78;35.50;100408.66;2107424;28;20029;-64
2023/12/03 04:16:42;;;;;;;2.88;1.40;;;;;;;20.78;35.72;100402.38;2090136;28;20033;-64
2023/12/03 04:17:44;;;;;;;2.72;1.33;;;;;;;20.78;35.67;100408.66;2082526;28;20073;-64
2023/12/03 04:18:48;;;;;;;1.98;1.48;;;;;;;20.78;35.63;100402.38;2090672;28;20127;-64
2023/12/03 04:19:50;;;;;;;3.47;1.77;;;;;;;20.78;35.75;100399.66;2090828;28;20096;-64
2023/12/03 04:20:51;;;;;;;1.70;1.17;;;;;;;20.77;35.65;100407.03;2098478;28;20041;-64
2023/12/03 04:21:52;;;;;;;1.75;1.17;;;;;;;20.77;35.62;100406.25;2106396;28;20035;-64
2023/12/03 04:22:54;;;;;;;2.10;1.13;;;;;;;20.77;35.60;100414.44;2106701;28;20179;-64
2023/12/03 04:23:56;;;;;;;1.60;1.00;;;;;;;20.76;35.48;100405.47;2107125;28;20829;-64
2023/12/03 04:24:57;;;;;;;1.75;1.15;;;;;;;20.77;35.51;100417.19;2106844;28;20119;-64
2023/12/03 04:26:12;;;;;;;2.10;1.33;;;;;;;20.75;35.67;100408.56;2107335;28;21066;-64
2023/12/03 04:27:13;;;;;;;;;;;;;;;20.76;35.52;100415.59;2107092;28;20924;-64
2023/12/03 04:28:15;;;;;;;1.67;1.13;;;;;;;20.75;35.45;100414.03;2107327;28;20077;-65
2023/12/03 04:29:17;;;;;;;1.73;1.02;;;;;;;20.74;35.42;100410.50;2114885;28;20879;-64
2023/12/03 04:30:20;;;;;;;1.98;1.20;;;;;;;20.74;35.38;100418.69;2107057;28;20147;-64
2023/12/03 04:31:25;;;;;;;2.25;1.30;;;;;;;20.75;35.51;100419.47;2090560;28;20985;-64
2023/12/03 04:32:30;;;;;;;2.40;1.15;;;;;;;20.76;35.55;100421.06;2090849;28;20168;-64
2023/12/03 04:33:32;;;;;;;1.05;0.88;;;;;;;20.73;35.44;100410.84;2090350;28;20962;-64
2023/12/03 04:34:40;;;;;;;1.58;1.10;;;;;;;20.74;35.46;100412.41;2082852;28;20120;-64
2023/12/03 04:35:42;;;;;;;2.42;1.40;;;;;;;20.75;35.41;100414.03;2083609;28;20034;-64
2023/12/03 04:36:43;;;;;;;1.35;1.02;;;;;;;20.72;35.38;100406.53;2090489;28;20037;-64
2023/12/03 04:37:45;;;;;;;1.98;1.00;;;;;;;20.73;35.43;100416.28;2107074;28;20174;-64
2023/12/03 04:38:51;;;;;;;2.13;1.17;;;;;;;20.73;35.36;100413.56;2114724;28;20031;-64
2023/12/03 04:39:53;;;;;;;2.20;1.42;;;;;;;20.73;35.30;100417.09;2098095;28;20280;-64
2023/12/03 04:40:54;;;;;;;2.08;1.20;;;;;;;20.72;35.26;100406.53;2090419;28;20042;-64
2023/12/03 04:41:57;;;;;;;1.73;1.10;;;;;;;20.73;35.30;100419.03;2106662;28;20167;-64
2023/12/03 04:42:59;;;;;;;1.52;1.05;;;;;;;20.74;35.34;100412.41;2107042;28;20028;-64
2023/12/03 04:44:03;;;;;;;2.28;1.20;;;;;;;20.75;35.24;100419.47;2106834;28;20109;-64
2023/12/03 04:45:11;;;;;;;2.03;1.20;;;;;;;20.74;35.33;100412.41;2106754;28;20086;-64
2023/12/03 04:46:13;;;;;;;1.42;1.08;;;;;;;20.72;35.27;100418.25;2090885;28;20033;-63
2023/12/03 04:47:14;;;;;;;1.50;1.10;;;;;;;20.73;35.24;100421.75;2082039;28;20038;-64
2023/12/03 04:48:16;;;;;;;1.42;1.15;;;;;;;20.72;35.17;100420.97;2073632;28;20041;-63
2023/12/03 04:49:17;;;;;;;1.42;1.02;;;;;;;20.72;35.34;100415.50;2090720;28;20172;-64
2023/12/03 04:50:19;;;;;;;1.45;0.95;;;;;;;20.73;35.08;100419.03;2106579;28;20891;-64